Time;durP1;ratioP1;P1;durP2;ratioP2;P2;SDS_P1;SDS_P2;PMS_P1;PMS_P2;Temp;Humidity;BMP_temperature;BMP_pressure;BME280_temperature;BME280_humidity;BME280_pressure;Samples;Min_cycle;Max_cycle;Signal;HPM_P1;HPM_P2
2021/12/23 00:02:59;;;;;;;29.57;17.40;;;-1.70;99.90;;;;;;10351585;28;20227;-74
2021/12/23 00:08:00;;;;;;;26.77;18.00;;;-1.80;99.90;;;;;;10354554;28;20304;-74
2021/12/23 00:13:00;;;;;;;25.73;15.80;;;-1.80;99.90;;;;;;10346800;28;20225;-74
2021/12/23 00:18:30;;;;;;;27.67;17.07;;;-1.80;99.90;;;;;;10347036;28;20221;-73
2021/12/23 00:23:31;;;;;;;27.40;17.30;;;-1.90;99.90;;;;;;10350448;28;20323;-74
2021/12/23 00:28:32;;;;;;;28.17;17.10;;;-1.80;99.90;;;;;;10356339;28;20278;-74
2021/12/23 00:33:35;;;;;;;25.10;16.63;;;-1.80;99.90;;;;;;10350839;28;20228;-75
2021/12/23 00:38:41;;;;;;;27.07;17.23;;;-1.70;99.90;;;;;;10342969;28;20214;-74
2021/12/23 00:43:42;;;;;;;28.97;17.87;;;-1.70;99.90;;;;;;10355012;28;20216;-74
2021/12/23 00:48:43;;;;;;;29.47;17.83;;;-1.50;99.90;;;;;;10345257;28;20233;-74
2021/12/23 00:53:52;;;;;;;26.13;15.70;;;-1.50;99.90;;;;;;10365683;28;20209;-74
2021/12/23 00:58:52;;;;;;;28.60;17.73;;;-1.60;99.90;;;;;;10361096;28;20827;-74
2021/12/23 01:03:53;;;;;;;25.73;16.57;;;-1.70;99.90;;;;;;10353746;28;20252;-75
2021/12/23 01:08:54;;;;;;;26.80;17.13;;;-1.70;99.90;;;;;;10354126;28;20929;-74
2021/12/23 01:14:13;;;;;;;25.40;17.03;;;-1.70;99.90;;;;;;10354220;28;20228;-75
2021/12/23 01:19:16;;;;;;;29.13;16.53;;;-1.50;99.90;;;;;;10350585;28;20225;-74
2021/12/23 01:24:17;;;;;;;27.20;17.40;;;-1.40;99.90;;;;;;10359862;28;20570;-74
2021/12/23 01:29:17;;;;;;;27.63;16.40;;;-1.30;99.90;;;;;;10361673;28;20229;-74
2021/12/23 01:34:19;;;;;;;26.53;16.30;;;-1.30;99.90;;;;;;10355408;28;20228;-74
2021/12/23 01:39:20;;;;;;;27.63;17.13;;;-1.30;99.90;;;;;;10355399;28;20228;-73
2021/12/23 01:44:20;;;;;;;36.10;21.47;;;-1.20;99.90;;;;;;10356134;28;20217;-74
2021/12/23 01:49:21;;;;;;;33.63;20.17;;;-1.20;99.90;;;;;;10349096;28;20230;-73
2021/12/23 01:54:21;;;;;;;38.53;22.90;;;-1.10;99.90;;;;;;10368679;28;20213;-73
2021/12/23 01:59:22;;;;;;;38.80;22.30;;;-1.10;99.90;;;;;;10347699;28;20218;-75
2021/12/23 02:04:22;;;;;;;30.47;19.50;;;-1.00;99.90;;;;;;10355855;28;20592;-73
2021/12/23 02:09:23;;;;;;;29.00;17.43;;;-1.00;99.90;;;;;;10356663;28;20719;-73
2021/12/23 02:14:24;;;;;;;26.87;17.53;;;-1.10;99.90;;;;;;10347750;28;20233;-73
2021/12/23 02:19:26;;;;;;;24.27;16.20;;;-1.20;99.90;;;;;;10361151;28;20225;-73
2021/12/23 02:24:27;;;;;;;27.80;17.50;;;-1.20;99.90;;;;;;10346592;28;20304;-74
2021/12/23 02:29:27;;;;;;;27.67;16.50;;;-1.20;99.90;;;;;;10354320;28;20313;-74
2021/12/23 02:34:28;;;;;;;24.63;17.93;;;-1.20;99.90;;;;;;10358048;28;20244;-74
2021/12/23 02:39:29;;;;;;;29.90;18.23;;;-1.20;99.90;;;;;;10354088;28;20237;-74
2021/12/23 02:44:30;;;;;;;26.80;16.90;;;-1.20;99.90;;;;;;10361534;28;20237;-74
2021/12/23 02:49:32;;;;;;;30.33;18.80;;;-1.20;99.90;;;;;;10354494;28;20233;-74
2021/12/23 02:54:32;;;;;;;30.37;18.47;;;-1.20;99.90;;;;;;10353775;28;20280;-73
2021/12/23 02:59:33;;;;;;;27.07;18.20;;;-1.30;99.90;;;;;;10354537;28;20237;-74
2021/12/23 03:04:34;;;;;;;25.83;17.10;;;-1.20;99.90;;;;;;10353823;28;20228;-73
2021/12/23 03:09:34;;;;;;;30.33;18.17;;;-1.30;99.90;;;;;;10353197;28;20644;-74
2021/12/23 03:14:35;;;;;;;33.70;19.90;;;-1.30;99.90;;;;;;10352122;28;20806;-74
2021/12/23 03:19:35;;;;;;;28.07;18.37;;;-1.40;99.90;;;;;;10360921;28;20221;-74
2021/12/23 03:24:36;;;;;;;25.23;16.47;;;-1.30;99.90;;;;;;10357987;28;20304;-74
2021/12/23 03:29:37;;;;;;;29.53;18.37;;;-1.20;99.90;;;;;;10353515;28;20907;-74
2021/12/23 03:34:37;;;;;;;28.30;17.57;;;-1.20;99.90;;;;;;10352199;28;20221;-73
2021/12/23 03:39:38;;;;;;;29.53;18.20;;;-1.30;99.90;;;;;;10350792;28;20252;-74
2021/12/23 03:44:38;;;;;;;30.37;17.43;;;-1.40;99.90;;;;;;10345922;28;20240;-73
2021/12/23 03:49:39;;;;;;;28.03;18.03;;;-1.60;99.90;;;;;;10359893;28;20231;-74
2021/12/23 03:54:39;;;;;;;24.97;17.37;;;-1.60;99.90;;;;;;10356641;28;20243;-75
2021/12/23 03:59:40;;;;;;;29.53;18.43;;;-1.60;99.90;;;;;;10344982;28;20287;-74
2021/12/23 04:04:41;;;;;;;27.90;17.10;;;-1.70;99.90;;;;;;10349457;28;20730;-74
2021/12/23 04:09:41;;;;;;;26.57;17.73;;;-1.70;99.90;;;;;;10349064;28;20229;-74
2021/12/23 04:14:42;;;;;;;31.83;18.87;;;-1.70;99.90;;;;;;10357303;28;20225;-74
2021/12/23 04:19:45;;;;;;;27.97;17.20;;;-1.80;99.90;;;;;;10345744;28;20217;-73
2021/12/23 04:24:46;;;;;;;30.87;17.80;;;-1.80;99.90;;;;;;10361166;28;20217;-74
2021/12/23 04:29:47;;;;;;;25.07;17.57;;;-1.70;99.90;;;;;;10354915;28;20232;-74
2021/12/23 04:34:47;;;;;;;27.63;17.80;;;-1.70;99.90;;;;;;10357393;28;20222;-74
2021/12/23 04:39:48;;;;;;;27.93;18.50;;;-1.60;99.90;;;;;;10358451;28;20213;-73
2021/12/23 04:44:48;;;;;;;26.50;17.30;;;-1.60;99.90;;;;;;10356427;28;20939;-74
2021/12/23 04:49:49;;;;;;;28.30;18.10;;;-1.50;99.90;;;;;;10355433;28;20232;-75
2021/12/23 04:54:50;;;;;;;26.00;17.80;;;-1.50;99.90;;;;;;10354119;28;20218;-74
2021/12/23 04:59:50;;;;;;;28.00;18.40;;;-1.40;99.90;;;;;;10354687;28;20588;-75
2021/12/23 05:04:51;;;;;;;25.53;17.87;;;-1.40;99.90;;;;;;10353354;28;20228;-74
2021/12/23 05:09:51;;;;;;;25.37;17.37;;;-1.30;99.90;;;;;;10369137;28;20313;-73
2021/12/23 05:14:52;;;;;;;25.20;16.53;;;-1.20;99.90;;;;;;10356142;28;20213;-73
2021/12/23 05:19:52;;;;;;;25.93;16.73;;;-1.20;99.90;;;;;;10361245;28;20217;-73
2021/12/23 05:24:53;;;;;;;26.67;17.23;;;-1.30;99.90;;;;;;10358190;28;20588;-74
2021/12/23 05:29:53;;;;;;;27.70;16.90;;;-1.40;99.90;;;;;;10363781;28;20648;-74
2021/12/23 05:34:54;;;;;;;28.00;17.77;;;-1.50;99.90;;;;;;10358960;28;20222;-74
2021/12/23 05:39:55;;;;;;;27.47;17.77;;;-1.60;99.90;;;;;;10354134;28;20320;-74
2021/12/23 05:44:55;;;;;;;27.00;17.53;;;-1.60;99.90;;;;;;10359158;28;20648;-74
2021/12/23 05:49:59;;;;;;;25.20;16.13;;;-1.70;99.90;;;;;;10359916;28;20764;-74
2021/12/23 05:55:02;;;;;;;27.70;18.00;;;-1.70;99.90;;;;;;10358603;28;20245;-73
2021/12/23 06:00:14;;;;;;;24.83;17.27;;;-1.80;99.90;;;;;;10355589;28;20276;-74
2021/12/23 06:05:15;;;;;;;29.63;17.80;;;-1.70;99.90;;;;;;10353467;28;20221;-74
2021/12/23 06:10:16;;;;;;;23.97;17.10;;;-1.70;99.90;;;;;;10349029;28;20296;-74
2021/12/23 06:15:17;;;;;;;27.03;17.77;;;-1.60;99.90;;;;;;10353533;28;20700;-74
2021/12/23 06:20:18;;;;;;;33.20;20.17;;;-1.70;99.90;;;;;;10355660;28;20299;-74
2021/12/23 06:25:18;;;;;;;26.50;17.70;;;-1.80;99.90;;;;;;10348491;28;20189;-74
2021/12/23 06:30:19;;;;;;;29.00;19.00;;;-1.80;99.90;;;;;;10362931;28;20267;-74
2021/12/23 06:35:22;;;;;;;31.13;20.33;;;-1.70;99.90;;;;;;10349429;28;20190;-74
2021/12/23 06:40:23;;;;;;;32.50;21.10;;;-1.70;99.90;;;;;;10361566;28;20703;-75
2021/12/23 06:45:24;;;;;;;33.90;20.43;;;-1.60;99.90;;;;;;10355243;28;20234;-74
2021/12/23 06:50:25;;;;;;;32.77;20.73;;;-1.50;99.90;;;;;;10348914;28;20745;-74
2021/12/23 06:55:25;;;;;;;35.03;20.93;;;-1.40;99.90;;;;;;10354370;28;20218;-74
2021/12/23 07:00:29;;;;;;;31.50;19.77;;;-1.40;99.90;;;;;;10352876;28;20231;-75
2021/12/23 07:05:29;;;;;;;31.43;19.43;;;-1.50;99.90;;;;;;10361385;28;20620;-74
2021/12/23 07:10:31;;;;;;;31.97;19.83;;;-1.50;99.90;;;;;;10352973;28;20228;-74
2021/12/23 07:15:33;;;;;;;31.00;19.77;;;-1.60;99.90;;;;;;10352500;28;20222;-73
2021/12/23 07:20:34;;;;;;;32.97;20.73;;;-1.60;99.90;;;;;;10352091;28;20584;-74
2021/12/23 07:25:35;;;;;;;31.87;19.73;;;-1.60;99.90;;;;;;10352374;28;20228;-75
2021/12/23 07:30:36;;;;;;;31.83;19.97;;;-1.70;99.90;;;;;;10350650;28;20227;-74
2021/12/23 07:35:36;;;;;;;34.70;21.37;;;-1.70;99.90;;;;;;10351643;28;20224;-74
2021/12/23 07:40:37;;;;;;;37.77;21.67;;;-1.70;99.90;;;;;;10357291;28;20333;-74
2021/12/23 07:45:39;;;;;;;30.30;19.33;;;-1.80;99.90;;;;;;10347763;28;20659;-74
2021/12/23 07:50:43;;;;;;;37.17;22.00;;;-1.80;99.90;;;;;;10348559;28;20221;-74
2021/12/23 07:55:43;;;;;;;36.07;21.53;;;-1.70;99.90;;;;;;10366077;28;20213;-74
2021/12/23 08:00:44;;;;;;;40.63;23.13;;;-1.60;99.90;;;;;;10361646;28;20684;-74
2021/12/23 08:05:45;;;;;;;37.90;21.87;;;-1.30;99.90;;;;;;10364720;28;20299;-74
2021/12/23 08:10:46;;;;;;;36.60;22.30;;;-1.00;99.90;;;;;;10357670;28;20321;-74
2021/12/23 08:15:47;;;;;;;36.17;22.70;;;-0.70;99.90;;;;;;10349578;28;20222;-75
2021/12/23 08:20:47;;;;;;;37.27;22.67;;;-0.50;99.90;;;;;;10363662;28;20221;-74
2021/12/23 08:25:48;;;;;;;36.10;22.50;;;-0.40;99.90;;;;;;10348518;28;20259;-74
2021/12/23 08:30:49;;;;;;;35.40;22.40;;;-0.20;99.90;;;;;;10360089;28;20230;-75
2021/12/23 08:35:49;;;;;;;39.43;22.90;;;-0.10;99.90;;;;;;10346131;28;20243;-76
2021/12/23 08:40:51;;;;;;;37.93;23.50;;;0.00;99.90;;;;;;10354684;28;20220;-74
2021/12/23 08:45:52;;;;;;;36.20;22.60;;;0.10;99.90;;;;;;10346121;28;20225;-74
2021/12/23 08:50:54;;;;;;;36.07;23.00;;;0.20;99.90;;;;;;10346950;28;20230;-74
2021/12/23 08:55:55;;;;;;;38.17;22.17;;;0.40;99.90;;;;;;10345676;28;20304;-74
2021/12/23 09:00:58;;;;;;;37.80;22.73;;;0.50;99.90;;;;;;10351181;28;20783;-74
2021/12/23 09:06:00;;;;;;;40.00;23.83;;;0.60;99.90;;;;;;10346606;28;20221;-74
2021/12/23 09:11:01;;;;;;;38.83;23.93;;;0.60;99.90;;;;;;10348849;28;20232;-74
2021/12/23 09:16:02;;;;;;;35.57;22.27;;;0.70;99.90;;;;;;10352672;28;20224;-74
2021/12/23 09:21:04;;;;;;;34.93;21.97;;;0.90;99.90;;;;;;10359680;28;20218;-74
2021/12/23 09:26:09;;;;;;;33.67;22.03;;;1.00;99.90;;;;;;10356884;28;20221;-75
2021/12/23 09:36:29;;;;;;;33.73;21.47;;;1.20;99.90;;;;;;10351094;28;20728;-74
2021/12/23 09:41:31;;;;;;;34.50;22.23;;;1.20;99.90;;;;;;10355031;28;20466;-74
2021/12/23 09:46:34;;;;;;;35.73;21.70;;;1.30;99.90;;;;;;10358252;28;20257;-75
2021/12/23 09:51:36;;;;;;;36.33;21.37;;;1.40;99.90;;;;;;10367387;28;20268;-74
2021/12/23 09:56:37;;;;;;;33.43;21.73;;;1.40;99.90;;;;;;10354507;28;20225;-75
2021/12/23 10:01:38;;;;;;;33.20;21.67;;;1.40;99.90;;;;;;10349553;28;20214;-74
2021/12/23 10:06:39;;;;;;;36.07;21.33;;;1.50;99.90;;;;;;10357293;28;20596;-74
2021/12/23 10:12:14;;;;;;;35.23;21.87;;;1.60;99.90;;;;;;10354245;28;20264;-74
2021/12/23 10:30:02;;;;;;;32.97;20.50;;;1.80;99.90;;;;;;10349747;28;20233;-74
2021/12/23 10:38:31;;;;;;;30.53;19.60;;;1.90;99.90;;;;;;10355322;28;20801;-74
2021/12/23 10:43:47;;;;;;;31.47;19.20;;;2.00;99.90;;;;;;10349239;28;20368;-75
2021/12/23 10:49:30;;;;;;;31.37;20.13;;;2.10;99.90;;;;;;10351396;28;21219;-74
2021/12/23 10:59:47;;;;;;;31.40;19.93;;;2.40;99.90;;;;;;10351356;28;20220;-74
2021/12/23 11:10:18;;;;;;;28.17;18.97;;;2.70;99.90;;;;;;10349283;28;20721;-74
2021/12/23 11:37:47;;;;;;;28.60;19.47;;;3.00;99.90;;;;;;10269774;28;20213;-75
2021/12/23 11:48:09;;;;;;;31.63;19.70;;;2.90;99.90;;;;;;10320581;28;20323;-74
2021/12/23 11:53:09;;;;;;;34.73;20.03;;;2.80;99.90;;;;;;10371472;28;20277;-75
2021/12/23 11:58:10;;;;;;;28.77;18.53;;;2.70;99.90;;;;;;10361114;28;20272;-74
2021/12/23 12:03:15;;;;;;;29.13;18.33;;;2.70;99.90;;;;;;10350638;28;20248;-74
2021/12/23 12:08:15;;;;;;;30.03;18.30;;;2.70;99.90;;;;;;10344762;28;20226;-74
2021/12/23 12:13:17;;;;;;;31.00;19.83;;;2.90;99.90;;;;;;10357616;28;20684;-75
2021/12/23 12:18:22;;;;;;;29.73;19.27;;;3.00;99.90;;;;;;10353323;28;20276;-75
2021/12/23 12:23:34;;;;;;;30.37;19.73;;;3.00;99.90;;;;;;10347835;28;20702;-74
2021/12/23 12:28:46;;;;;;;29.50;18.70;;;3.00;99.90;;;;;;10352675;28;20221;-74
2021/12/23 12:33:53;;;;;;;31.77;19.27;;;3.10;99.90;;;;;;10346476;28;20221;-75
2021/12/23 12:39:03;;;;;;;28.20;18.80;;;3.10;99.90;;;;;;10349564;28;20225;-75
2021/12/23 12:44:35;;;;;;;28.33;19.23;;;3.20;99.90;;;;;;10357708;28;20307;-75
2021/12/23 12:49:37;;;;;;;28.90;18.93;;;3.40;99.90;;;;;;10366190;28;20244;-75
2021/12/23 12:55:11;;;;;;;30.03;18.47;;;3.50;99.90;;;;;;10356981;28;20590;-76
2021/12/23 13:00:25;;;;;;;30.57;18.53;;;3.60;99.90;;;;;;10328755;28;20226;-73
2021/12/23 13:05:38;;;;;;;31.57;18.17;;;3.60;99.90;;;;;;10326039;28;20594;-75
2021/12/23 13:10:41;;;;;;;27.73;18.40;;;3.70;99.90;;;;;;10324045;28;20718;-74
2021/12/23 13:15:46;;;;;;;32.00;18.40;;;3.80;99.90;;;;;;10318739;28;20308;-75
2021/12/23 13:20:51;;;;;;;23.70;16.43;;;3.80;99.90;;;;;;10310774;28;20214;-75
2021/12/23 13:26:05;;;;;;;28.20;18.20;;;3.80;99.90;;;;;;10325613;28;20234;-74
2021/12/23 13:31:13;;;;;;;26.60;17.10;;;3.80;99.90;;;;;;10322169;28;20308;-74
2021/12/23 13:36:29;;;;;;;28.33;18.10;;;3.80;99.90;;;;;;10324279;28;20238;-74
2021/12/23 13:41:32;;;;;;;26.40;17.40;;;3.80;99.90;;;;;;10310494;28;20245;-74
2021/12/23 13:46:33;;;;;;;26.80;17.57;;;3.80;99.90;;;;;;10328691;28;20238;-74
2021/12/23 13:51:40;;;;;;;26.00;16.90;;;3.90;99.90;;;;;;10334631;28;20754;-75
2021/12/23 13:56:50;;;;;;;26.50;16.97;;;3.90;99.90;;;;;;10332967;28;20221;-74
2021/12/23 14:02:26;;;;;;;25.60;16.17;;;4.00;99.90;;;;;;10369184;28;20225;-74
2021/12/23 14:07:31;;;;;;;25.20;16.43;;;4.00;99.90;;;;;;10361976;28;20618;-74
2021/12/23 14:12:52;;;;;;;24.90;16.97;;;4.10;99.90;;;;;;10357051;28;20232;-74
2021/12/23 14:23:44;;;;;;;24.00;15.70;;;4.00;99.90;;;;;;10369887;28;20226;-75
2021/12/23 14:28:49;;;;;;;26.10;15.37;;;4.00;99.90;;;;;;10362996;28;20707;-74
2021/12/23 14:33:59;;;;;;;23.10;15.47;;;4.00;99.90;;;;;;10355069;28;20222;-74
2021/12/23 14:39:09;;;;;;;23.40;14.77;;;4.00;99.90;;;;;;10356771;28;20228;-74
2021/12/23 14:44:16;;;;;;;20.67;14.27;;;4.10;99.90;;;;;;10347404;28;20237;-74
2021/12/23 14:54:30;;;;;;;24.13;14.17;;;4.20;99.90;;;;;;10348796;28;20245;-74
2021/12/23 14:59:31;;;;;;;22.47;14.17;;;4.20;99.90;;;;;;10365729;28;20252;-76
2021/12/23 15:04:32;;;;;;;19.87;14.77;;;4.20;99.90;;;;;;10356309;28;20224;-74
2021/12/23 15:09:35;;;;;;;21.20;13.87;;;4.20;99.90;;;;;;10361400;28;20252;-75
2021/12/23 15:14:45;;;;;;;21.83;14.23;;;4.30;99.90;;;;;;10354135;28;20221;-76
2021/12/23 15:19:54;;;;;;;19.47;13.40;;;4.40;99.90;;;;;;10346691;28;20642;-75
2021/12/23 15:25:08;;;;;;;21.43;13.43;;;4.40;99.90;;;;;;10363378;28;20267;-75
2021/12/23 15:30:20;;;;;;;18.03;12.93;;;4.50;99.90;;;;;;10351201;28;20317;-74
2021/12/23 15:35:23;;;;;;;21.47;13.60;;;4.50;99.90;;;;;;10352668;28;20186;-74
2021/12/23 15:40:29;;;;;;;22.67;12.63;;;4.60;99.90;;;;;;10358241;28;20217;-74
2021/12/23 15:45:35;;;;;;;20.47;13.10;;;4.70;99.90;;;;;;10352183;28;20333;-74
2021/12/23 15:50:37;;;;;;;19.27;13.13;;;4.70;99.90;;;;;;10363620;28;20236;-75
2021/12/23 15:55:38;;;;;;;18.37;12.30;;;4.70;99.90;;;;;;10356897;28;20214;-76
2021/12/23 16:00:38;;;;;;;21.20;13.50;;;4.70;99.90;;;;;;10358225;28;20304;-75
2021/12/23 16:10:41;;;;;;;19.27;12.70;;;4.80;99.90;;;;;;10343494;28;20276;-75
2021/12/23 16:15:42;;;;;;;20.20;13.27;;;4.80;99.90;;;;;;10346172;28;20654;-74
2021/12/23 16:20:45;;;;;;;21.30;12.60;;;4.80;99.90;;;;;;10347728;28;20241;-74
2021/12/23 16:25:46;;;;;;;18.17;12.27;;;4.80;99.90;;;;;;10351069;28;20319;-75
2021/12/23 16:30:51;;;;;;;19.33;13.23;;;4.80;99.90;;;;;;10357628;28;20316;-75
2021/12/23 16:35:51;;;;;;;21.50;13.30;;;4.80;99.90;;;;;;10346594;28;20221;-74
2021/12/23 16:40:53;;;;;;;19.50;12.93;;;4.80;99.90;;;;;;10349036;28;20218;-74
2021/12/23 16:45:54;;;;;;;19.60;13.37;;;4.80;99.90;;;;;;10352987;28;20343;-75
2021/12/23 16:50:57;;;;;;;19.03;13.40;;;4.80;99.90;;;;;;10367317;28;20235;-74
2021/12/23 17:00:58;;;;;;;21.37;13.37;;;4.90;99.90;;;;;;10350802;28;20218;-75
2021/12/23 17:06:00;;;;;;;20.93;14.50;;;4.90;99.90;;;;;;10346198;28;20226;-74
2021/12/23 17:11:05;;;;;;;24.20;15.90;;;5.00;99.90;;;;;;10346297;28;20222;-75
2021/12/23 17:16:08;;;;;;;20.80;13.30;;;5.00;99.90;;;;;;10347999;28;20221;-74
2021/12/23 17:26:11;;;;;;;29.07;15.00;;;5.10;99.90;;;;;;10347035;28;20232;-75
2021/12/23 17:31:12;;;;;;;19.37;13.30;;;5.20;99.90;;;;;;10359409;28;20226;-74
2021/12/23 17:36:12;;;;;;;19.93;12.90;;;5.20;99.90;;;;;;10358761;28;20603;-76
2021/12/23 17:41:15;;;;;;;19.00;12.97;;;5.30;99.90;;;;;;10362396;28;20221;-74
2021/12/23 17:46:18;;;;;;;20.13;12.83;;;5.40;99.90;;;;;;10357672;28;20547;-75
2021/12/23 17:51:19;;;;;;;17.30;11.57;;;5.50;99.90;;;;;;10362792;28;20225;-75
2021/12/23 17:56:21;;;;;;;20.07;12.83;;;5.50;99.90;;;;;;10350118;28;20218;-75
2021/12/23 18:01:23;;;;;;;20.93;12.73;;;5.60;99.90;;;;;;10362370;28;20222;-75
2021/12/23 18:06:23;;;;;;;19.27;12.23;;;5.70;99.90;;;;;;10359649;28;20236;-74
2021/12/23 18:11:26;;;;;;;16.87;12.47;;;5.70;99.90;;;;;;10356832;28;20232;-75
2021/12/23 18:16:27;;;;;;;15.27;11.23;;;5.70;99.90;;;;;;10358795;28;20213;-75
2021/12/23 18:21:27;;;;;;;18.20;13.33;;;5.70;99.90;;;;;;10360969;28;20218;-75
2021/12/23 18:26:28;;;;;;;16.40;11.50;;;5.70;99.90;;;;;;10355676;28;20221;-74
2021/12/23 18:31:31;;;;;;;20.77;12.57;;;5.70;99.90;;;;;;10347531;28;20239;-74
2021/12/23 18:41:34;;;;;;;19.60;12.20;;;5.90;99.90;;;;;;10354472;28;20222;-74
2021/12/23 18:46:35;;;;;;;21.90;13.60;;;5.90;99.90;;;;;;10347541;28;20256;-74
2021/12/23 18:51:36;;;;;;;17.77;13.00;;;5.90;99.90;;;;;;10360521;28;20226;-74
2021/12/23 18:56:37;;;;;;;19.27;12.27;;;5.90;99.90;;;;;;10353656;28;20217;-74
2021/12/23 19:01:38;;;;;;;16.60;11.33;;;5.90;99.90;;;;;;10353780;28;20214;-75
2021/12/23 19:06:44;;;;;;;16.33;11.57;;;5.90;99.90;;;;;;10346852;28;20224;-75
2021/12/23 19:11:48;;;;;;;15.83;11.70;;;5.90;99.90;;;;;;10348647;28;20234;-75
2021/12/23 19:16:49;;;;;;;16.43;11.20;;;5.90;99.90;;;;;;10367225;28;20281;-75
2021/12/23 19:21:49;;;;;;;18.80;12.63;;;6.00;99.90;;;;;;10373206;28;20318;-74
2021/12/23 19:26:50;;;;;;;16.20;11.13;;;6.00;99.90;;;;;;10358324;28;20233;-75
2021/12/23 19:31:50;;;;;;;18.67;11.90;;;6.00;99.90;;;;;;10345434;28;20234;-75
2021/12/23 19:36:54;;;;;;;17.67;11.33;;;6.00;99.90;;;;;;10348069;28;20231;-74
2021/12/23 19:41:55;;;;;;;16.90;11.47;;;6.00;99.90;;;;;;10351406;28;20245;-75
2021/12/23 19:46:56;;;;;;;15.83;11.30;;;6.00;99.90;;;;;;10362485;28;20692;-75
2021/12/23 19:51:56;;;;;;;16.50;11.03;;;6.00;99.90;;;;;;10367172;28;20284;-75
2021/12/23 19:56:59;;;;;;;15.83;11.30;;;5.90;99.90;;;;;;10347342;28;20593;-76
2021/12/23 20:02:00;;;;;;;15.63;10.97;;;6.00;99.90;;;;;;10352542;28;20225;-75
2021/12/23 20:07:00;;;;;;;16.87;10.77;;;6.00;99.90;;;;;;10353959;28;20232;-74
2021/12/23 20:12:01;;;;;;;15.13;11.00;;;6.00;99.90;;;;;;10349505;28;20328;-75
2021/12/23 20:17:05;;;;;;;16.77;10.87;;;6.10;99.90;;;;;;10351842;28;20691;-76
2021/12/23 20:22:07;;;;;;;14.47;10.70;;;6.20;99.90;;;;;;10365156;28;20221;-75
2021/12/23 20:27:09;;;;;;;14.03;10.23;;;6.20;99.90;;;;;;10347124;28;20256;-74
2021/12/23 20:32:10;;;;;;;16.43;11.17;;;6.30;99.90;;;;;;10343572;28;20320;-75
2021/12/23 20:37:14;;;;;;;16.00;10.30;;;6.40;99.90;;;;;;10349513;28;20721;-75
2021/12/23 20:42:19;;;;;;;13.77;10.20;;;6.40;99.90;;;;;;10338153;28;20313;-75
2021/12/23 20:47:21;;;;;;;14.53;10.03;;;6.40;99.90;;;;;;10357531;28;20308;-74
2021/12/23 20:52:22;;;;;;;13.67;10.43;;;6.40;99.90;;;;;;10337051;28;20602;-75
2021/12/23 20:57:23;;;;;;;12.13;9.43;;;6.40;99.90;;;;;;10346746;28;20220;-74
2021/12/23 21:02:24;;;;;;;12.83;9.60;;;6.50;99.90;;;;;;10366307;28;20696;-75
2021/12/23 21:07:29;;;;;;;15.03;10.37;;;6.60;99.90;;;;;;10351534;28;20301;-75
2021/12/23 21:12:29;;;;;;;13.40;10.07;;;6.60;99.90;;;;;;10375069;28;20792;-75
2021/12/23 21:17:30;;;;;;;15.70;10.43;;;6.70;99.90;;;;;;10351554;28;20245;-75
2021/12/23 21:22:31;;;;;;;13.70;8.83;;;6.70;99.90;;;;;;10366905;28;20220;-76
2021/12/23 21:27:34;;;;;;;16.30;9.60;;;6.80;99.90;;;;;;10350618;28;20226;-75
2021/12/23 21:32:35;;;;;;;14.67;9.30;;;6.80;99.90;;;;;;10357940;28;20407;-75
2021/12/23 21:37:37;;;;;;;14.47;9.50;;;6.80;99.90;;;;;;10356346;28;20250;-75
2021/12/23 21:42:43;;;;;;;13.33;9.27;;;6.90;99.90;;;;;;10363929;28;20284;-76
2021/12/23 21:47:44;;;;;;;14.30;9.20;;;6.90;99.90;;;;;;10350435;28;20230;-75
2021/12/23 21:52:48;;;;;;;14.30;9.87;;;6.90;99.90;;;;;;10356706;28;20276;-75
2021/12/23 21:57:52;;;;;;;13.83;9.50;;;7.00;99.90;;;;;;10356109;28;20213;-75
2021/12/23 22:02:53;;;;;;;11.97;9.67;;;7.00;99.90;;;;;;10364868;28;20221;-74
2021/12/23 22:07:56;;;;;;;13.23;8.73;;;7.00;99.90;;;;;;10354340;28;20317;-76
2021/12/23 22:12:57;;;;;;;12.07;8.50;;;7.20;99.90;;;;;;10361850;28;20225;-76
2021/12/23 22:17:58;;;;;;;12.00;8.97;;;7.30;99.90;;;;;;10359938;28;20222;-76
2021/12/23 22:23:04;;;;;;;12.70;9.03;;;7.30;99.90;;;;;;10362065;28;20213;-76
2021/12/23 22:28:08;;;;;;;15.37;8.87;;;7.30;99.90;;;;;;10357035;28;20732;-75
2021/12/23 22:33:19;;;;;;;17.47;9.73;;;7.30;99.90;;;;;;10355839;28;20225;-75
2021/12/23 22:38:21;;;;;;;11.87;8.97;;;7.40;99.90;;;;;;10356802;28;20257;-75
2021/12/23 22:43:24;;;;;;;15.23;8.87;;;7.40;99.90;;;;;;10348863;28;20313;-76
2021/12/23 22:48:25;;;;;;;15.67;9.60;;;7.40;99.90;;;;;;10355690;28;20271;-76
2021/12/23 22:53:26;;;;;;;14.13;10.17;;;7.40;99.90;;;;;;10353931;28;20665;-76
2021/12/23 22:58:27;;;;;;;15.20;10.27;;;7.30;99.90;;;;;;10363912;28;20321;-76
2021/12/23 23:03:37;;;;;;;18.47;10.93;;;7.20;99.90;;;;;;10360342;28;20705;-76
2021/12/23 23:08:41;;;;;;;15.00;10.60;;;7.00;99.90;;;;;;10366419;28;20222;-75
2021/12/23 23:13:55;;;;;;;15.00;11.33;;;7.00;99.90;;;;;;10364723;28;20228;-76
2021/12/23 23:18:57;;;;;;;16.33;12.27;;;6.90;99.90;;;;;;10361905;28;20229;-75
2021/12/23 23:24:09;;;;;;;16.10;11.63;;;6.90;99.90;;;;;;10353634;28;20231;-76
2021/12/23 23:40:14;;;;;;;14.30;10.60;;;6.80;99.90;;;;;;10357439;28;20276;-74
2021/12/23 23:45:18;;;;;;;13.73;10.57;;;6.90;99.90;;;;;;10360374;28;20318;-77
2021/12/23 23:50:19;;;;;;;13.00;9.50;;;6.90;99.90;;;;;;10346484;28;20208;-75
2021/12/23 23:55:21;;;;;;;14.90;10.43;;;7.00;99.90;;;;;;10350264;28;20327;-75
